Time;durP1;ratioP1;P1;durP2;ratioP2;P2;SDS_P1;SDS_P2;PMS_P1;PMS_P2;Temp;Humidity;BMP_temperature;BMP_pressure;BME280_temperature;BME280_humidity;BME280_pressure;Samples;Min_cycle;Max_cycle;Signal;HPM_P1;HPM_P2
2022/04/08 00:01:41;;;;;;;5.85;1.73;;;8.60;99.90;;;;;;6245525;22;20018;-74
2022/04/08 00:04:07;;;;;;;2.67;1.20;;;8.60;99.90;;;;;;6246906;22;19996;-75
2022/04/08 00:06:33;;;;;;;8.68;1.52;;;8.60;99.90;;;;;;6245437;23;20004;-74
2022/04/08 00:08:59;;;;;;;4.60;1.50;;;8.50;99.90;;;;;;6246341;23;20072;-74
2022/04/08 00:11:25;;;;;;;7.57;1.70;;;8.60;99.90;;;;;;6243998;22;20000;-74
2022/04/08 00:13:53;;;;;;;4.45;1.27;;;8.60;99.90;;;;;;6245940;22;20027;-75
2022/04/08 00:16:19;;;;;;;3.60;1.65;;;8.60;99.90;;;;;;6245756;22;20015;-75
2022/04/08 00:18:45;;;;;;;9.82;1.73;;;8.50;99.90;;;;;;6245280;22;20315;-75
2022/04/08 00:21:11;;;;;;;6.82;2.20;;;8.50;99.90;;;;;;6244406;22;20417;-75
2022/04/08 00:23:37;;;;;;;9.07;2.22;;;8.50;99.90;;;;;;6243567;22;20004;-75
2022/04/08 00:26:03;;;;;;;8.52;2.00;;;8.40;99.90;;;;;;6244040;23;20053;-75
2022/04/08 00:28:29;;;;;;;9.95;2.65;;;8.50;99.90;;;;;;6243417;23;20000;-76
2022/04/08 00:30:54;;;;;;;6.00;1.88;;;8.40;99.90;;;;;;6243843;22;20019;-75
2022/04/08 00:33:20;;;;;;;8.30;1.90;;;8.40;99.90;;;;;;6243755;23;20011;-75
2022/04/08 00:35:45;;;;;;;4.38;2.58;;;8.40;99.90;;;;;;6245120;23;20038;-75
2022/04/08 00:38:11;;;;;;;5.80;2.30;;;8.60;99.90;;;;;;6245974;23;20007;-75
2022/04/08 00:40:37;;;;;;;6.55;2.30;;;8.40;99.90;;;;;;6246222;23;20000;-75
2022/04/08 00:43:16;;;;;;;5.35;1.67;;;8.40;99.90;;;;;;6245410;23;20012;-74
2022/04/08 00:45:43;;;;;;;6.72;2.50;;;8.30;99.90;;;;;;6246025;22;20484;-75
2022/04/08 00:48:09;;;;;;;5.30;2.03;;;8.20;99.90;;;;;;6245249;22;20004;-75
2022/04/08 00:50:39;;;;;;;7.43;2.35;;;8.30;99.90;;;;;;6243982;22;20004;-75
2022/04/08 00:53:06;;;;;;;7.18;1.90;;;8.40;99.90;;;;;;6245920;22;20065;-74
2022/04/08 00:55:34;;;;;;;8.88;2.55;;;8.30;99.90;;;;;;6245731;22;20004;-75
2022/04/08 00:58:02;;;;;;;5.30;1.85;;;8.30;99.90;;;;;;6245498;22;20058;-74
2022/04/08 01:00:33;;;;;;;10.50;2.20;;;8.30;99.90;;;;;;6245087;22;20018;-75
2022/04/08 01:02:59;;;;;;;10.90;2.53;;;8.30;99.90;;;;;;6245895;22;20078;-75
2022/04/08 01:05:26;;;;;;;9.43;3.03;;;8.30;99.90;;;;;;6245481;23;20003;-75
2022/04/08 01:07:52;;;;;;;8.65;2.85;;;8.30;99.90;;;;;;6243798;22;20591;-74
2022/04/08 01:10:18;;;;;;;6.97;3.25;;;8.20;99.90;;;;;;6245338;22;20003;-75
2022/04/08 01:12:44;;;;;;;8.93;3.33;;;8.20;99.90;;;;;;6244866;23;20067;-75
2022/04/08 01:15:10;;;;;;;6.70;3.08;;;8.30;99.90;;;;;;6244441;23;20035;-75
2022/04/08 01:17:36;;;;;;;16.45;3.67;;;8.30;99.90;;;;;;6245526;22;20000;-75
2022/04/08 01:20:03;;;;;;;16.38;3.78;;;8.20;99.90;;;;;;6244890;22;20307;-75
2022/04/08 01:22:29;;;;;;;6.63;3.50;;;8.20;99.90;;;;;;6243924;23;20013;-75
2022/04/08 01:25:05;;;;;;;10.05;3.28;;;8.20;99.90;;;;;;6243766;23;20000;-75
2022/04/08 01:27:31;;;;;;;13.70;3.60;;;8.30;99.90;;;;;;6245108;22;20126;-75
2022/04/08 01:29:58;;;;;;;9.82;3.83;;;8.30;99.90;;;;;;6245507;22;20131;-75
2022/04/08 01:32:24;;;;;;;12.95;3.72;;;8.30;99.90;;;;;;6243765;22;20499;-75
2022/04/08 01:34:50;;;;;;;13.50;4.25;;;8.30;99.90;;;;;;6244106;23;19996;-75
2022/04/08 01:37:16;;;;;;;12.82;4.25;;;8.20;99.90;;;;;;6245211;22;20011;-74
2022/04/08 01:39:42;;;;;;;17.92;3.95;;;8.20;99.90;;;;;;6243403;23;20367;-74
2022/04/08 01:42:08;;;;;;;14.25;4.35;;;8.20;99.90;;;;;;6245074;22;20087;-75
2022/04/08 01:44:38;;;;;;;16.30;4.68;;;8.10;99.90;;;;;;6244973;22;20071;-74
2022/04/08 01:47:04;;;;;;;10.52;3.90;;;8.10;99.90;;;;;;6244962;22;20000;-75
2022/04/08 01:49:30;;;;;;;19.75;4.55;;;8.20;99.90;;;;;;6243431;22;20003;-75
2022/04/08 01:51:56;;;;;;;14.02;4.78;;;8.20;99.90;;;;;;6244548;22;20388;-75
2022/04/08 01:54:21;;;;;;;10.63;4.18;;;8.20;99.90;;;;;;6245012;22;20004;-74
2022/04/08 01:56:47;;;;;;;9.57;3.97;;;8.20;99.90;;;;;;6245559;23;20007;-75
2022/04/08 01:59:13;;;;;;;12.40;3.63;;;8.20;99.90;;;;;;6244866;22;20087;-75
2022/04/08 02:01:39;;;;;;;8.75;3.90;;;8.20;99.90;;;;;;6244833;22;20035;-75
2022/04/08 02:04:05;;;;;;;16.92;4.20;;;8.20;99.90;;;;;;6244942;22;20008;-75
2022/04/08 02:06:31;;;;;;;11.38;4.18;;;8.20;99.90;;;;;;6245553;22;20022;-76
2022/04/08 02:08:57;;;;;;;12.68;4.00;;;8.20;99.90;;;;;;6245319;22;20430;-75
2022/04/08 02:11:24;;;;;;;13.13;3.67;;;8.20;99.90;;;;;;6245191;22;20003;-75
2022/04/08 02:13:50;;;;;;;12.10;3.30;;;8.20;99.90;;;;;;6245113;22;20004;-75
2022/04/08 02:16:16;;;;;;;10.05;4.20;;;8.10;99.90;;;;;;6244825;23;20004;-75
2022/04/08 02:18:42;;;;;;;8.02;3.50;;;8.10;99.90;;;;;;6244638;23;20008;-75
2022/04/08 02:21:09;;;;;;;13.15;3.83;;;8.20;99.90;;;;;;6245911;22;20027;-75
2022/04/08 02:23:36;;;;;;;12.23;4.45;;;8.20;99.90;;;;;;6243270;22;20016;-74
2022/04/08 02:26:02;;;;;;;13.93;5.00;;;8.20;99.90;;;;;;6244040;22;20406;-75
2022/04/08 02:28:28;;;;;;;15.00;5.10;;;8.20;99.90;;;;;;6244710;22;20000;-75
2022/04/08 02:30:55;;;;;;;8.40;5.25;;;8.20;99.90;;;;;;6244244;23;20445;-74
2022/04/08 02:33:21;;;;;;;10.82;4.93;;;8.30;99.90;;;;;;6245449;22;20001;-75
2022/04/08 02:35:47;;;;;;;12.02;5.10;;;8.30;99.90;;;;;;6245472;23;20425;-74
2022/04/08 02:38:13;;;;;;;9.15;4.80;;;8.20;99.90;;;;;;6243040;22;20003;-74
2022/04/08 02:40:39;;;;;;;17.98;6.63;;;8.20;99.90;;;;;;6243762;22;20004;-74
2022/04/08 02:43:04;;;;;;;13.35;6.53;;;8.20;99.90;;;;;;6244448;23;20016;-74
2022/04/08 02:45:30;;;;;;;16.27;6.32;;;8.20;99.90;;;;;;6242623;23;20034;-75
2022/04/08 02:47:56;;;;;;;12.18;6.80;;;8.10;99.90;;;;;;6244982;23;20004;-74
2022/04/08 02:50:21;;;;;;;17.83;8.00;;;8.00;99.90;;;;;;6246376;23;20004;-75
2022/04/08 02:52:47;;;;;;;15.52;8.18;;;8.00;99.90;;;;;;6245008;23;20008;-74
2022/04/08 02:55:13;;;;;;;14.20;8.27;;;7.90;99.90;;;;;;6246636;23;20000;-74
2022/04/08 02:57:44;;;;;;;13.30;8.52;;;8.00;99.90;;;;;;6244939;23;20011;-74
2022/04/08 03:00:13;;;;;;;20.37;9.63;;;8.00;99.90;;;;;;6246191;22;20012;-74
2022/04/08 03:02:38;;;;;;;13.15;8.82;;;8.00;99.90;;;;;;6246543;22;20290;-73
2022/04/08 03:05:06;;;;;;;17.08;9.30;;;7.80;99.90;;;;;;6247151;23;20003;-75
2022/04/08 03:07:32;;;;;;;16.33;8.82;;;7.90;99.90;;;;;;6247472;22;20008;-75
2022/04/08 03:09:58;;;;;;;17.20;8.52;;;7.80;99.90;;;;;;6244742;22;20006;-74
2022/04/08 03:12:23;;;;;;;18.10;9.82;;;7.70;99.90;;;;;;6246637;23;20004;-75
2022/04/08 03:14:49;;;;;;;21.85;10.25;;;7.70;99.90;;;;;;6244577;23;20022;-75
2022/04/08 03:17:15;;;;;;;20.40;10.82;;;7.70;99.90;;;;;;6246643;23;20011;-75
2022/04/08 03:19:40;;;;;;;25.45;10.27;;;7.70;99.90;;;;;;6245932;23;20444;-74
2022/04/08 03:22:06;;;;;;;22.45;10.55;;;7.70;99.90;;;;;;6246828;23;20096;-75
2022/04/08 03:24:32;;;;;;;24.25;11.65;;;7.70;99.90;;;;;;6246590;22;20075;-74
2022/04/08 03:26:58;;;;;;;23.17;11.43;;;7.80;99.90;;;;;;6246557;22;20000;-75
2022/04/08 03:29:24;;;;;;;19.63;10.95;;;7.80;99.90;;;;;;6246346;23;20006;-75
2022/04/08 03:31:49;;;;;;;24.08;11.18;;;7.90;99.90;;;;;;6244007;23;20433;-74
2022/04/08 03:34:15;;;;;;;22.42;11.55;;;7.90;99.90;;;;;;6246180;23;20443;-75
2022/04/08 03:36:41;;;;;;;19.15;11.15;;;7.80;99.90;;;;;;6246637;23;20004;-74
2022/04/08 03:39:08;;;;;;;19.98;11.90;;;7.80;99.90;;;;;;6246549;23;20011;-74
2022/04/08 03:41:34;;;;;;;22.73;11.43;;;7.90;99.90;;;;;;6246954;22;20034;-75
2022/04/08 03:44:00;;;;;;;18.92;12.02;;;7.90;99.90;;;;;;6246075;23;20004;-74
2022/04/08 03:46:26;;;;;;;19.45;12.38;;;7.90;99.90;;;;;;6246541;23;20011;-75
2022/04/08 03:48:51;;;;;;;20.48;11.57;;;7.90;99.90;;;;;;6246646;22;20030;-75
2022/04/08 03:51:17;;;;;;;27.50;12.27;;;7.90;99.90;;;;;;6246185;23;20322;-74
2022/04/08 03:53:43;;;;;;;28.33;12.65;;;7.90;99.90;;;;;;6246399;23;20032;-75
2022/04/08 03:56:09;;;;;;;22.80;11.27;;;7.90;99.90;;;;;;6244330;23;20020;-75
2022/04/08 03:58:34;;;;;;;21.92;11.93;;;8.00;99.90;;;;;;6246017;23;20012;-75
2022/04/08 04:01:00;;;;;;;19.63;11.52;;;8.00;99.90;;;;;;6245813;23;20441;-74
2022/04/08 04:03:26;;;;;;;19.15;10.98;;;7.90;99.90;;;;;;6245853;22;20043;-73
2022/04/08 04:05:51;;;;;;;26.60;11.60;;;7.80;99.90;;;;;;6244538;23;20415;-74
2022/04/08 04:08:19;;;;;;;21.67;10.52;;;7.70;99.90;;;;;;6246215;23;20422;-74
2022/04/08 04:10:46;;;;;;;18.60;10.07;;;7.80;99.90;;;;;;6245861;23;20068;-75
2022/04/08 04:13:12;;;;;;;19.95;9.35;;;7.80;99.90;;;;;;6245922;22;20004;-74
2022/04/08 04:15:38;;;;;;;17.65;9.63;;;7.70;99.90;;;;;;6244376;22;20004;-74
2022/04/08 04:18:04;;;;;;;25.27;10.18;;;7.70;99.90;;;;;;6246110;22;20024;-74
2022/04/08 04:20:30;;;;;;;16.80;9.25;;;7.70;99.90;;;;;;6246312;23;20019;-75
2022/04/08 04:22:56;;;;;;;15.65;8.48;;;7.60;99.90;;;;;;6245609;22;20038;-75
2022/04/08 04:25:22;;;;;;;16.38;8.55;;;7.50;99.90;;;;;;6246050;23;20000;-75
2022/04/08 04:27:48;;;;;;;14.55;7.13;;;7.50;99.90;;;;;;6245572;23;20444;-75
2022/04/08 04:30:13;;;;;;;13.45;7.50;;;7.50;99.90;;;;;;6245971;23;19996;-75
2022/04/08 04:32:39;;;;;;;16.42;6.57;;;7.60;99.90;;;;;;6246216;23;20004;-75
2022/04/08 04:35:08;;;;;;;15.10;7.47;;;7.50;99.90;;;;;;6245876;23;20330;-75
2022/04/08 04:37:37;;;;;;;12.70;6.57;;;7.50;99.90;;;;;;6245704;22;20448;-75
2022/04/08 04:40:04;;;;;;;14.27;6.70;;;7.50;99.90;;;;;;6243416;22;20004;-74
2022/04/08 04:42:30;;;;;;;14.48;7.00;;;7.60;99.90;;;;;;6244839;22;20016;-75
2022/04/08 04:44:56;;;;;;;10.88;6.00;;;7.50;99.90;;;;;;6246279;22;20004;-75
2022/04/08 04:47:23;;;;;;;14.82;6.57;;;7.60;99.90;;;;;;6245848;22;20008;-76
2022/04/08 04:49:48;;;;;;;15.23;5.90;;;7.50;99.90;;;;;;6246010;22;20012;-74
2022/04/08 04:52:15;;;;;;;12.60;5.90;;;7.60;99.90;;;;;;6245674;23;20012;-74
2022/04/08 04:54:41;;;;;;;12.45;6.53;;;7.50;99.90;;;;;;6245873;23;20477;-74
2022/04/08 04:57:07;;;;;;;13.40;6.75;;;7.50;99.90;;;;;;6245362;22;20015;-75
2022/04/08 04:59:33;;;;;;;10.15;5.93;;;7.50;99.90;;;;;;6245862;22;20015;-73
2022/04/08 05:01:59;;;;;;;12.20;6.93;;;7.60;99.90;;;;;;6245763;22;20016;-74
2022/04/08 05:04:24;;;;;;;12.88;7.20;;;7.60;99.90;;;;;;6245827;23;20023;-74
2022/04/08 05:06:50;;;;;;;13.68;6.45;;;7.60;99.90;;;;;;6245597;22;20421;-74
2022/04/08 05:09:17;;;;;;;12.65;6.57;;;7.60;99.90;;;;;;6244399;23;20468;-74
2022/04/08 05:11:43;;;;;;;13.20;6.75;;;7.50;99.90;;;;;;6245048;23;20003;-74
2022/04/08 05:14:08;;;;;;;15.57;7.50;;;7.60;99.90;;;;;;6245292;23;19997;-75
2022/04/08 05:16:34;;;;;;;9.80;7.05;;;7.60;99.90;;;;;;6245610;23;20425;-75
2022/04/08 05:19:00;;;;;;;15.05;7.07;;;7.50;99.90;;;;;;6245244;23;20000;-74
2022/04/08 05:21:29;;;;;;;11.90;6.57;;;7.50;99.90;;;;;;6244131;23;20058;-75
2022/04/08 05:23:55;;;;;;;9.52;6.50;;;7.60;99.90;;;;;;6245110;22;20035;-74
2022/04/08 05:26:21;;;;;;;15.02;6.65;;;7.60;99.90;;;;;;6244831;22;20054;-74
2022/04/08 05:28:47;;;;;;;12.45;6.88;;;7.50;99.90;;;;;;6245524;22;20012;-74
2022/04/08 05:31:13;;;;;;;11.38;6.53;;;7.50;99.90;;;;;;6244930;22;20479;-74
2022/04/08 05:33:39;;;;;;;12.95;7.65;;;7.50;99.90;;;;;;6244673;22;20007;-74
2022/04/08 05:36:05;;;;;;;14.68;6.57;;;7.50;99.90;;;;;;6244708;22;20004;-74
2022/04/08 05:38:30;;;;;;;15.63;8.15;;;7.40;99.90;;;;;;6244588;23;20055;-74
2022/04/08 05:40:56;;;;;;;12.70;6.80;;;7.50;99.90;;;;;;6242346;23;20422;-74
2022/04/08 05:43:22;;;;;;;11.35;6.68;;;7.50;99.90;;;;;;6244518;22;20008;-75
2022/04/08 05:45:47;;;;;;;16.92;7.93;;;7.50;99.90;;;;;;6245427;23;20422;-74
2022/04/08 05:48:13;;;;;;;11.95;7.53;;;7.50;99.90;;;;;;6243395;23;20005;-74
2022/04/08 05:50:39;;;;;;;11.65;6.95;;;7.50;99.90;;;;;;6243684;23;20008;-74
2022/04/08 05:53:05;;;;;;;14.18;7.88;;;7.50;99.90;;;;;;6244009;23;20004;-74
2022/04/08 05:55:31;;;;;;;13.82;8.05;;;7.60;99.90;;;;;;6244538;22;20003;-74
2022/04/08 05:57:56;;;;;;;14.50;7.43;;;7.70;99.90;;;;;;6245076;22;20078;-73
2022/04/08 06:00:23;;;;;;;13.20;6.90;;;7.60;99.90;;;;;;6244371;22;20008;-74
2022/04/08 06:02:50;;;;;;;13.82;7.25;;;7.70;99.90;;;;;;6243515;22;20035;-74
2022/04/08 06:05:18;;;;;;;13.77;7.22;;;7.70;99.90;;;;;;6242503;22;20330;-73
2022/04/08 06:07:54;;;;;;;15.93;9.30;;;7.60;99.90;;;;;;6243202;22;20000;-75
2022/04/08 06:10:26;;;;;;;14.65;8.02;;;7.70;99.90;;;;;;6242756;22;20008;-72
2022/04/08 06:12:53;;;;;;;13.27;7.40;;;7.70;99.90;;;;;;6267489;22;20008;-74
2022/04/08 06:15:19;;;;;;;10.98;7.05;;;7.70;99.90;;;;;;6243651;22;20091;-75
2022/04/08 06:17:45;;;;;;;20.92;8.32;;;7.70;99.90;;;;;;6245120;22;20314;-74
2022/04/08 06:20:13;;;;;;;16.20;7.78;;;7.70;99.90;;;;;;6244624;22;20011;-74
2022/04/08 06:22:39;;;;;;;14.93;7.32;;;7.70;99.90;;;;;;6244384;22;20012;-75
2022/04/08 06:25:11;;;;;;;13.65;6.82;;;7.70;99.90;;;;;;6247025;22;20452;-74
2022/04/08 06:27:36;;;;;;;13.93;6.85;;;7.70;99.90;;;;;;6247145;22;20008;-74
2022/04/08 06:30:09;;;;;;;12.60;6.43;;;7.70;99.90;;;;;;6247187;22;20004;-73
2022/04/08 06:32:38;;;;;;;8.75;5.95;;;7.70;99.90;;;;;;6246712;22;20030;-75
2022/04/08 06:35:04;;;;;;;15.85;8.63;;;7.80;99.90;;;;;;6246716;22;20004;-73
2022/04/08 06:37:30;;;;;;;8.68;6.03;;;7.70;99.90;;;;;;6246962;22;20303;-74
2022/04/08 06:40:01;;;;;;;12.05;6.80;;;7.80;99.90;;;;;;6246963;23;20030;-73
2022/04/08 06:42:26;;;;;;;13.10;6.88;;;7.80;99.90;;;;;;6246873;22;20016;-74
2022/04/08 06:44:52;;;;;;;13.30;7.63;;;7.80;99.90;;;;;;6246790;23;20003;-74
2022/04/08 06:47:18;;;;;;;10.80;6.47;;;7.80;99.90;;;;;;6246791;23;20000;-74
2022/04/08 06:49:46;;;;;;;15.00;7.75;;;8.00;99.90;;;;;;6246167;23;20008;-74
2022/04/08 06:52:13;;;;;;;11.52;8.13;;;8.00;99.90;;;;;;6245263;22;20020;-73
2022/04/08 06:54:38;;;;;;;13.10;7.13;;;8.00;99.90;;;;;;6246823;23;20075;-75
2022/04/08 06:57:04;;;;;;;11.38;6.95;;;8.00;99.90;;;;;;6245986;22;20051;-75
2022/04/08 06:59:30;;;;;;;17.52;7.45;;;8.10;99.90;;;;;;6246324;23;20815;-75
2022/04/08 07:01:55;;;;;;;16.35;7.70;;;8.10;99.90;;;;;;6245951;23;20011;-75
2022/04/08 07:04:21;;;;;;;15.40;7.07;;;8.10;99.90;;;;;;6246306;23;20003;-75
2022/04/08 07:06:47;;;;;;;14.93;8.05;;;8.00;99.90;;;;;;6246111;23;20007;-76
2022/04/08 07:09:13;;;;;;;18.50;7.85;;;8.10;99.90;;;;;;6246514;22;20018;-75
2022/04/08 07:11:39;;;;;;;11.05;7.30;;;8.20;99.90;;;;;;6246041;22;20003;-74
2022/04/08 07:14:07;;;;;;;18.23;7.72;;;8.20;99.90;;;;;;6245129;23;20000;-74
2022/04/08 07:16:32;;;;;;;17.05;7.57;;;8.20;99.90;;;;;;6244921;22;20004;-75
2022/04/08 07:18:58;;;;;;;14.68;8.35;;;8.30;99.90;;;;;;6246431;22;20000;-74
2022/04/08 07:21:24;;;;;;;13.05;8.45;;;8.20;99.90;;;;;;6244439;23;20035;-74
2022/04/08 07:23:49;;;;;;;14.23;7.53;;;8.30;99.90;;;;;;6246413;23;20000;-75
2022/04/08 07:26:15;;;;;;;12.10;7.88;;;8.30;99.90;;;;;;6245468;23;20000;-74
2022/04/08 07:28:41;;;;;;;12.95;7.90;;;8.30;99.90;;;;;;6246606;23;20053;-74
2022/04/08 07:31:07;;;;;;;13.07;8.02;;;8.40;99.90;;;;;;6246181;22;20004;-74
2022/04/08 07:33:33;;;;;;;11.30;7.47;;;8.50;99.90;;;;;;6246399;22;20047;-75
2022/04/08 07:35:58;;;;;;;12.60;8.13;;;8.50;99.90;;;;;;6245664;23;20000;-74
2022/04/08 07:38:25;;;;;;;15.80;8.13;;;8.60;99.90;;;;;;6247032;22;20429;-74
2022/04/08 07:40:50;;;;;;;15.20;8.10;;;8.60;99.90;;;;;;6242814;23;20004;-75
2022/04/08 07:43:17;;;;;;;12.52;7.80;;;8.60;99.90;;;;;;6245471;23;20015;-75
2022/04/08 07:45:43;;;;;;;13.93;8.55;;;8.60;99.90;;;;;;6246021;22;20000;-75
2022/04/08 07:48:09;;;;;;;13.40;7.20;;;8.70;99.90;;;;;;6246308;22;20000;-75
2022/04/08 07:50:37;;;;;;;11.57;7.13;;;8.70;99.90;;;;;;6246695;22;20011;-75
2022/04/08 07:53:03;;;;;;;11.88;7.78;;;8.60;99.90;;;;;;6246181;22;20008;-75
2022/04/08 07:55:29;;;;;;;13.02;6.90;;;8.60;99.90;;;;;;6244561;23;20012;-74
2022/04/08 07:57:55;;;;;;;13.95;8.20;;;8.60;99.90;;;;;;6245883;22;20007;-75
2022/04/08 08:00:25;;;;;;;12.25;8.52;;;8.80;99.90;;;;;;6246213;22;20012;-75
2022/04/08 08:02:51;;;;;;;12.38;7.63;;;8.80;99.90;;;;;;6246318;22;20040;-74
2022/04/08 08:05:20;;;;;;;12.77;6.97;;;8.80;99.90;;;;;;6269623;22;20035;-74
2022/04/08 08:07:57;;;;;;;17.15;7.57;;;8.90;99.90;;;;;;6246153;22;20000;-75
2022/04/08 08:10:24;;;;;;;10.73;6.50;;;8.90;99.90;;;;;;6244166;23;20432;-75
2022/04/08 08:12:51;;;;;;;17.00;6.40;;;8.90;99.90;;;;;;6246331;23;20000;-75
2022/04/08 08:15:18;;;;;;;11.32;6.43;;;9.00;99.90;;;;;;6246178;22;20011;-75
2022/04/08 08:17:44;;;;;;;15.20;6.55;;;9.00;99.90;;;;;;6244096;22;20001;-74
2022/04/08 08:20:12;;;;;;;15.68;6.53;;;9.00;99.90;;;;;;6268820;22;20091;-75
2022/04/08 08:22:39;;;;;;;13.68;6.95;;;9.00;99.90;;;;;;6245924;22;20016;-75
2022/04/08 08:25:06;;;;;;;14.25;6.40;;;9.10;99.90;;;;;;6242785;22;20004;-75
2022/04/08 08:27:51;;;;;;;12.38;6.55;;;9.20;99.90;;;;;;6243299;22;20008;-76
2022/04/08 08:30:18;;;;;;;8.73;5.90;;;9.30;99.90;;;;;;6244543;22;20058;-77
2022/04/08 08:32:48;;;;;;;19.20;6.05;;;9.30;99.90;;;;;;6241751;22;20410;-77
2022/04/08 08:35:18;;;;;;;12.60;5.90;;;9.30;99.90;;;;;;6244613;22;20369;-76
2022/04/08 08:37:44;;;;;;;6.90;5.35;;;9.40;99.90;;;;;;6244549;22;20087;-75
2022/04/08 08:40:11;;;;;;;16.23;5.47;;;9.40;99.90;;;;;;6243776;23;20070;-75
2022/04/08 08:42:38;;;;;;;10.48;5.80;;;9.40;99.90;;;;;;6246181;22;20429;-76
2022/04/08 08:45:09;;;;;;;10.30;5.45;;;9.50;99.90;;;;;;6245857;22;20003;-76
2022/04/08 08:47:36;;;;;;;11.10;5.40;;;9.50;99.90;;;;;;6245272;22;20046;-76
2022/04/08 08:50:02;;;;;;;14.23;5.60;;;9.60;99.90;;;;;;6244203;23;20008;-75
2022/04/08 08:52:29;;;;;;;14.00;5.70;;;9.70;99.90;;;;;;6245470;22;20039;-75
2022/04/08 08:54:54;;;;;;;10.88;5.22;;;9.70;99.90;;;;;;6245644;22;20008;-76
2022/04/08 08:57:22;;;;;;;8.70;4.07;;;9.80;99.90;;;;;;6243977;23;20375;-75
2022/04/08 08:59:50;;;;;;;14.45;3.97;;;9.80;99.90;;;;;;6245537;22;20008;-75
2022/04/08 09:02:21;;;;;;;11.00;4.32;;;9.80;99.90;;;;;;6241568;22;20105;-74
2022/04/08 09:04:49;;;;;;;8.52;4.13;;;9.70;99.90;;;;;;6244074;22;20011;-74
2022/04/08 09:07:28;;;;;;;8.23;3.45;;;9.80;99.90;;;;;;6243495;22;20011;-75
2022/04/08 09:09:58;;;;;;;9.05;4.10;;;9.90;99.90;;;;;;6244874;22;20000;-76
2022/04/08 09:12:26;;;;;;;35.20;22.92;;;9.90;99.90;;;;;;6245276;23;20061;-77
2022/04/08 09:14:55;;;;;;;11.88;4.80;;;10.00;99.90;;;;;;6245241;22;20000;-75
2022/04/08 09:17:24;;;;;;;5.72;3.53;;;10.00;99.90;;;;;;6244337;22;19996;-74
2022/04/08 09:19:52;;;;;;;7.32;3.25;;;10.00;99.90;;;;;;6244691;22;20004;-74
2022/04/08 09:22:19;;;;;;;5.65;3.17;;;10.00;99.90;;;;;;6244816;22;20067;-74
2022/04/08 09:24:44;;;;;;;8.45;4.00;;;10.00;99.90;;;;;;6244655;22;20329;-74
2022/04/08 09:27:11;;;;;;;8.98;3.20;;;10.00;99.90;;;;;;6243221;23;20008;-74
2022/04/08 09:29:37;;;;;;;11.57;3.70;;;10.00;99.90;;;;;;6243361;22;20004;-75
2022/04/08 09:32:13;;;;;;;4.47;2.85;;;10.00;99.90;;;;;;6243802;22;20042;-76
2022/04/08 09:34:41;;;;;;;8.48;2.97;;;10.00;99.90;;;;;;6242585;22;20008;-76
2022/04/08 09:37:11;;;;;;;9.85;3.20;;;10.00;99.90;;;;;;6244718;22;20004;-75
2022/04/08 09:39:52;;;;;;;7.82;3.33;;;10.10;99.90;;;;;;6243395;23;20031;-75
2022/04/08 09:42:17;;;;;;;7.82;2.90;;;10.00;99.90;;;;;;6243684;22;20040;-74
2022/04/08 09:44:43;;;;;;;9.00;3.10;;;10.10;99.90;;;;;;6244878;23;20003;-75
2022/04/08 09:47:08;;;;;;;6.25;2.75;;;10.00;99.90;;;;;;6244647;23;20372;-75
2022/04/08 09:49:35;;;;;;;6.93;3.05;;;10.10;99.90;;;;;;6242787;23;20087;-75
2022/04/08 09:52:05;;;;;;;7.60;3.10;;;10.20;99.90;;;;;;6244888;22;20352;-75
2022/04/08 09:54:33;;;;;;;7.60;2.90;;;10.20;99.90;;;;;;6244385;22;20027;-75
2022/04/08 09:57:00;;;;;;;5.10;3.17;;;10.20;99.90;;;;;;6243029;22;20003;-75
2022/04/08 09:59:29;;;;;;;6.03;2.85;;;10.20;99.90;;;;;;6243725;22;20050;-75
2022/04/08 10:01:57;;;;;;;5.75;2.72;;;10.20;99.90;;;;;;6243421;22;20012;-77
2022/04/08 10:04:23;;;;;;;10.68;3.20;;;10.30;99.90;;;;;;6243907;22;20083;-75
2022/04/08 10:06:49;;;;;;;9.93;2.80;;;10.30;99.90;;;;;;6244412;22;20004;-75
2022/04/08 10:09:17;;;;;;;8.15;2.95;;;10.30;99.90;;;;;;6243404;23;20410;-75
2022/04/08 10:12:11;;;;;;;5.25;2.45;;;10.30;99.90;;;;;;6245318;22;20000;-75
2022/04/08 10:14:44;;;;;;;7.18;2.58;;;10.30;99.90;;;;;;6239855;23;20338;-75
2022/04/08 10:17:10;;;;;;;10.73;3.10;;;10.40;99.90;;;;;;6244779;23;20030;-75
2022/04/08 10:19:36;;;;;;;12.05;2.85;;;10.40;99.90;;;;;;6244592;22;20087;-75
2022/04/08 10:22:02;;;;;;;8.02;2.60;;;10.30;99.90;;;;;;6244557;22;20039;-75
2022/04/08 10:24:30;;;;;;;7.30;2.28;;;10.40;99.90;;;;;;6244569;22;20012;-75
2022/04/08 10:27:01;;;;;;;11.07;2.72;;;10.30;99.90;;;;;;6244080;22;20633;-75
2022/04/08 10:29:27;;;;;;;5.15;2.58;;;10.40;99.90;;;;;;6243314;22;20341;-75
2022/04/08 10:32:02;;;;;;;7.68;1.83;;;10.40;99.90;;;;;;6243535;22;20004;-75
2022/04/08 10:34:32;;;;;;;5.05;1.50;;;10.40;99.90;;;;;;6244585;22;20042;-74
2022/04/08 10:36:59;;;;;;;7.05;2.20;;;10.40;99.90;;;;;;6242457;23;20079;-74
2022/04/08 10:39:26;;;;;;;7.35;2.45;;;10.40;99.90;;;;;;6244522;22;20001;-74
2022/04/08 10:41:57;;;;;;;6.65;2.38;;;10.30;99.90;;;;;;6243386;23;20051;-75
2022/04/08 10:44:33;;;;;;;8.63;2.47;;;10.30;99.90;;;;;;6242927;22;20079;-75
2022/04/08 10:47:01;;;;;;;4.55;1.73;;;10.40;99.90;;;;;;6243468;23;20008;-75
2022/04/08 10:49:27;;;;;;;5.88;1.55;;;10.50;99.90;;;;;;6243193;22;20035;-75
2022/04/08 10:51:53;;;;;;;9.05;2.53;;;10.50;99.90;;;;;;6243288;23;20008;-75
2022/04/08 10:54:20;;;;;;;6.68;2.10;;;10.50;99.90;;;;;;6244293;22;20008;-75
2022/04/08 10:56:57;;;;;;;9.15;2.15;;;10.50;99.90;;;;;;6242319;22;20000;-75
2022/04/08 10:59:27;;;;;;;5.50;1.80;;;10.60;99.90;;;;;;6267550;22;20032;-75
2022/04/08 11:01:58;;;;;;;9.63;2.60;;;10.60;99.90;;;;;;6242133;22;20008;-75
2022/04/08 11:04:27;;;;;;;6.65;1.95;;;10.60;99.90;;;;;;6244635;22;20360;-75
2022/04/08 11:06:52;;;;;;;6.75;1.70;;;10.60;99.90;;;;;;6243705;22;20038;-75
2022/04/08 11:09:19;;;;;;;6.45;1.60;;;10.70;99.90;;;;;;6239878;23;20031;-75
2022/04/08 11:11:49;;;;;;;6.97;2.30;;;10.70;99.90;;;;;;6246702;22;20000;-75
2022/04/08 11:14:15;;;;;;;7.50;2.53;;;10.90;99.90;;;;;;6241024;22;20006;-74
2022/04/08 11:16:41;;;;;;;11.90;2.78;;;10.90;99.90;;;;;;6245935;23;20032;-75
2022/04/08 11:19:08;;;;;;;10.63;2.97;;;10.90;99.90;;;;;;6245860;22;20433;-74
2022/04/08 11:21:36;;;;;;;5.10;2.47;;;10.80;99.90;;;;;;6243927;22;20341;-74
2022/04/08 11:24:01;;;;;;;5.13;2.40;;;10.70;99.90;;;;;;6245069;22;20004;-75
2022/04/08 11:26:41;;;;;;;5.28;2.28;;;10.80;99.90;;;;;;6245350;23;20011;-75
2022/04/08 11:29:17;;;;;;;8.35;2.40;;;10.90;99.90;;;;;;6243906;22;20452;-75
2022/04/08 11:31:44;;;;;;;9.57;2.70;;;11.00;99.90;;;;;;6245852;22;20019;-75
2022/04/08 11:34:11;;;;;;;6.97;2.42;;;10.90;99.90;;;;;;6245462;22;20088;-76
2022/04/08 11:36:37;;;;;;;9.98;3.00;;;10.90;99.90;;;;;;6245355;22;20008;-75
2022/04/08 11:39:04;;;;;;;11.45;3.97;;;11.00;99.90;;;;;;6245828;23;20243;-75
2022/04/08 11:41:30;;;;;;;18.00;10.88;;;11.10;99.90;;;;;;6244984;22;20011;-75
2022/04/08 11:43:56;;;;;;;13.02;8.57;;;11.00;99.90;;;;;;6244570;22;20019;-75
2022/04/08 11:46:22;;;;;;;8.55;5.07;;;11.00;99.90;;;;;;6245651;22;20000;-75
2022/04/08 11:48:49;;;;;;;8.68;2.40;;;11.00;99.90;;;;;;6244356;23;20011;-75
2022/04/08 11:51:19;;;;;;;7.97;1.88;;;10.90;99.90;;;;;;6245838;22;20023;-75
2022/04/08 11:53:53;;;;;;;11.13;2.80;;;11.00;99.90;;;;;;6245977;22;20095;-75
2022/04/08 11:56:25;;;;;;;10.68;2.53;;;11.00;99.90;;;;;;6243279;22;20011;-75
2022/04/08 11:59:01;;;;;;;9.45;2.25;;;10.90;99.90;;;;;;6245157;22;20095;-75
2022/04/08 12:01:48;;;;;;;4.43;1.98;;;11.00;99.90;;;;;;6245999;22;20004;-75
2022/04/08 12:04:17;;;;;;;8.25;2.60;;;10.90;99.90;;;;;;6245399;22;20087;-75
2022/04/08 12:06:45;;;;;;;7.35;2.65;;;10.90;99.90;;;;;;6243485;22;20027;-75
2022/04/08 12:09:12;;;;;;;6.78;2.03;;;11.00;99.90;;;;;;6244677;22;20043;-75
2022/04/08 12:11:39;;;;;;;9.68;2.28;;;10.90;99.90;;;;;;6243554;22;20094;-75
2022/04/08 12:14:08;;;;;;;6.47;1.88;;;11.00;99.90;;;;;;6244229;22;20494;-75
2022/04/08 12:16:34;;;;;;;16.10;2.22;;;11.10;99.90;;;;;;6245305;22;20511;-75
2022/04/08 12:19:02;;;;;;;8.98;2.85;;;11.10;99.90;;;;;;6245539;22;20008;-76
2022/04/08 12:21:30;;;;;;;8.68;1.98;;;11.00;99.90;;;;;;6245724;22;20031;-76
2022/04/08 12:24:02;;;;;;;7.00;2.05;;;10.90;99.90;;;;;;6245148;22;20008;-76
2022/04/08 12:26:27;;;;;;;9.83;2.60;;;11.00;99.90;;;;;;6245042;22;20007;-76
2022/04/08 12:29:10;;;;;;;8.60;1.83;;;11.10;99.90;;;;;;6244895;23;20243;-75
2022/04/08 12:31:49;;;;;;;;;;;11.20;99.90;;;;;;6246429;22;20006;-74
2022/04/08 12:34:15;;;;;;;11.55;1.75;;;11.10;99.90;;;;;;6244883;22;19976;-76
2022/04/08 12:36:42;;;;;;;9.05;2.25;;;11.10;99.90;;;;;;6245084;23;20019;-76
2022/04/08 12:39:09;;;;;;;4.57;1.45;;;11.20;99.90;;;;;;6245019;22;20024;-75
2022/04/08 12:41:41;;;;;;;7.05;2.42;;;11.10;99.90;;;;;;6245247;22;19996;-75
2022/04/08 12:44:08;;;;;;;7.85;1.95;;;11.20;99.90;;;;;;6242710;22;20490;-76
2022/04/08 12:46:35;;;;;;;7.80;2.70;;;11.20;99.90;;;;;;6245019;22;20004;-75
2022/04/08 12:49:00;;;;;;;12.18;3.70;;;11.20;99.90;;;;;;6242762;22;20311;-76